Time;durP1;ratioP1;P1;durP2;ratioP2;P2;SDS_P1;SDS_P2;PMS_P1;PMS_P2;Temp;Humidity;BMP_temperature;BMP_pressure;BME280_temperature;BME280_humidity;BME280_pressure;Samples;Min_cycle;Max_cycle;Signal;HPM_P1;HPM_P2
2021/04/03 00:01:07;;;;;;;12.48;9.10;;;;;;;5.95;63.70;100223.44;122422;1154;22541;-76
2021/04/03 00:03:36;;;;;;;15.35;9.85;;;;;;;5.92;64.00;100226.30;122111;1152;22549;-76
2021/04/03 00:06:04;;;;;;;12.38;8.90;;;;;;;5.88;64.31;100217.89;122178;1152;22530;-76
2021/04/03 00:08:33;;;;;;;12.53;7.60;;;;;;;5.83;64.56;100215.70;122010;1152;22642;-76
2021/04/03 00:11:07;;;;;;;13.10;8.25;;;;;;;5.82;64.39;100219.27;122194;1155;22535;-76
2021/04/03 00:13:41;;;;;;;11.35;8.10;;;;;;;5.83;64.84;100217.48;121993;1155;22570;-75
2021/04/03 00:16:10;;;;;;;10.88;8.20;;;;;;;5.84;64.76;100217.35;121722;1155;22562;-75
2021/04/03 00:18:38;;;;;;;15.03;10.93;;;;;;;5.86;64.81;100218.05;122025;1155;24706;-76
2021/04/03 00:21:07;;;;;;;13.93;9.40;;;;;;;5.87;65.04;100209.20;122037;1156;22601;-77
2021/04/03 00:23:36;;;;;;;13.95;9.43;;;;;;;5.88;64.76;100212.66;121690;1154;22658;-76
2021/04/03 00:26:04;;;;;;;12.33;8.40;;;;;;;5.88;65.07;100208.23;121987;1155;22669;-76
2021/04/03 00:28:32;;;;;;;11.50;7.73;;;;;;;5.87;64.92;100206.59;122058;1156;22565;-76
2021/04/03 00:31:00;;;;;;;10.03;7.33;;;;;;;5.82;64.87;100207.97;121663;1155;22840;-76
2021/04/03 00:33:29;;;;;;;13.63;8.63;;;;;;;5.78;64.78;100203.98;121517;1158;22615;-76
2021/04/03 00:35:58;;;;;;;12.13;9.28;;;;;;;5.76;65.01;100198.03;121539;1158;23384;-76
2021/04/03 00:38:26;;;;;;;13.65;9.88;;;;;;;5.75;65.19;100204.26;121737;1155;22558;-75
2021/04/03 00:40:54;;;;;;;16.50;8.98;;;;;;;5.72;65.13;100200.11;121675;1157;22539;-76
2021/04/03 00:43:24;;;;;;;14.93;8.60;;;;;;;5.74;65.31;100202.61;121675;1154;24689;-75
2021/04/03 00:45:53;;;;;;;14.47;10.07;;;;;;;5.76;65.66;100198.03;122068;1155;22539;-78
2021/04/03 00:48:22;;;;;;;16.65;10.43;;;;;;;5.76;65.68;100198.03;121597;1155;24530;-75
2021/04/03 00:50:54;;;;;;;13.93;9.75;;;;;;;5.78;65.67;100198.73;121627;1155;22736;-76
2021/04/03 00:53:27;;;;;;;13.38;8.75;;;;;;;5.79;65.77;100206.45;121980;1155;24696;-76
2021/04/03 00:56:08;;;;;;;12.70;9.58;;;;;;;5.79;66.39;100206.45;121728;1155;22560;-76
2021/04/03 00:58:37;;;;;;;16.58;10.43;;;;;;;5.81;65.90;100206.32;121423;1155;22601;-76
2021/04/03 01:01:08;;;;;;;14.93;8.75;;;;;;;5.80;65.92;100204.67;122068;1155;22646;-76
2021/04/03 01:03:40;;;;;;;13.53;9.63;;;;;;;5.78;65.71;100204.80;122065;1155;22560;-76
2021/04/03 01:06:09;;;;;;;11.18;9.23;;;;;;;5.76;65.68;100198.03;122096;1155;22565;-77
2021/04/03 01:08:37;;;;;;;13.65;7.93;;;;;;;5.70;65.83;100193.35;122089;1155;22554;-76
2021/04/03 01:11:07;;;;;;;11.88;8.30;;;;;;;5.68;65.86;100188.27;122008;1155;25054;-77
2021/04/03 01:14:05;;;;;;;11.70;8.00;;;;;;;5.65;66.09;100185.92;121706;1154;22546;-77
2021/04/03 01:16:44;;;;;;;13.20;9.00;;;;;;;5.65;66.27;100189.36;122035;1156;23115;-77
2021/04/03 01:20:03;;;;;;;11.90;8.90;;;;;;;5.67;66.19;100186.63;121823;1155;22554;-77
2021/04/03 01:23:24;;;;;;;14.30;8.58;;;;;;;5.66;66.39;100196.28;121613;1155;23745;-76
2021/04/03 01:26:46;;;;;;;13.05;8.88;;;;;;;5.67;66.54;100189.23;121951;1157;22562;-77
2021/04/03 01:29:14;;;;;;;15.53;10.58;;;;;;;5.68;66.61;100188.27;121777;1155;23026;-78
2021/04/03 01:31:45;;;;;;;13.40;9.13;;;;;;;5.73;66.87;100186.06;121505;1159;22648;-77
2021/04/03 01:34:26;;;;;;;14.43;9.15;;;;;;;5.79;66.94;100190.72;121465;1159;22583;-77
2021/04/03 01:37:05;;;;;;;15.33;9.60;;;;;;;5.82;66.71;100189.62;121483;1158;24478;-77
2021/04/03 01:39:36;;;;;;;9.73;8.73;;;;;;;5.85;66.62;100192.78;121488;1158;22584;-77
2021/04/03 01:42:11;;;;;;;12.30;10.30;;;;;;;5.85;66.71;100187.54;121715;1157;24547;-77
2021/04/03 01:44:55;;;;;;;12.65;9.48;;;;;;;5.85;66.94;100194.58;121156;1158;22574;-78
2021/04/03 01:47:29;;;;;;;12.93;9.65;;;;;;;5.84;66.54;100185.89;121452;1160;22614;-76
2021/04/03 01:49:59;;;;;;;13.55;10.68;;;;;;;5.87;66.98;100187.41;121438;1158;24525;-75
2021/04/03 01:52:32;;;;;;;16.88;11.15;;;;;;;5.90;67.49;100189.76;121457;1159;22564;-76
2021/04/03 01:55:08;;;;;;;14.98;11.08;;;;;;;5.93;67.23;100188.66;121426;1158;22544;-75
2021/04/03 01:57:44;;;;;;;13.43;10.73;;;;;;;5.93;67.45;100188.66;121992;1155;24721;-75
2021/04/03 02:00:23;;;;;;;16.13;11.93;;;;;;;5.94;67.01;100187.70;122017;1155;22541;-75
2021/04/03 02:02:58;;;;;;;16.70;10.63;;;;;;;5.91;67.28;100180.91;121968;1157;22564;-75
2021/04/03 02:05:29;;;;;;;14.70;10.80;;;;;;;5.93;67.42;100186.89;121639;1155;22392;-75
2021/04/03 02:08:15;;;;;;;15.93;10.25;;;;;;;5.94;67.45;100185.08;122002;1155;22557;-76
2021/04/03 02:10:47;;;;;;;16.13;9.93;;;;;;;5.94;67.40;100178.04;122069;1152;22550;-76
2021/04/03 02:13:16;;;;;;;14.83;9.33;;;;;;;5.94;67.26;100169.35;122113;1152;24418;-76
2021/04/03 02:15:50;;;;;;;18.00;11.70;;;;;;;5.92;67.15;100172.07;122142;1152;22534;-77
2021/04/03 02:18:20;;;;;;;15.45;10.48;;;;;;;5.88;67.22;100176.77;122252;1151;22548;-76
2021/04/03 02:20:48;;;;;;;21.33;11.28;;;;;;;5.84;67.53;100180.66;122107;1152;22533;-77
2021/04/03 02:23:17;;;;;;;21.88;12.55;;;;;;;5.81;67.23;100174.87;122133;1152;22534;-77
2021/04/03 02:25:45;;;;;;;24.25;13.78;;;;;;;5.79;67.32;100179.41;122058;1152;23418;-77
2021/04/03 02:28:18;;;;;;;17.73;12.45;;;;;;;5.78;67.54;100178.59;122111;1152;22775;-76
2021/04/03 02:30:51;;;;;;;19.45;13.50;;;;;;;5.80;67.81;100167.98;122187;1152;22553;-77
2021/04/03 02:33:20;;;;;;;22.28;14.15;;;;;;;5.82;67.82;100179.13;122180;1152;23327;-77
2021/04/03 02:35:49;;;;;;;19.53;13.15;;;;;;;5.81;67.79;100169.63;122013;1156;22563;-80
2021/04/03 02:38:18;;;;;;;21.25;14.65;;;;;;;5.83;67.81;100172.91;121671;1155;23665;-77
2021/04/03 02:40:56;;;;;;;18.65;13.63;;;;;;;5.84;68.02;100174.59;122026;1155;22560;-77
2021/04/03 02:43:44;;;;;;;19.87;14.03;;;;;;;5.83;67.91;100176.39;122018;1156;22694;-77
2021/04/03 02:46:26;;;;;;;26.75;15.43;;;;;;;5.81;67.85;100167.00;122066;1155;22557;-77
2021/04/03 02:48:59;;;;;;;;;;;;;;;5.75;68.00;100168.39;121731;1156;25857;-78
2021/04/03 02:51:41;;;;;;;24.03;15.45;;;;;;;5.72;68.09;100173.91;122115;1155;21416;-77
2021/04/03 02:54:17;;;;;;;21.30;14.53;;;;;;;5.74;68.30;100169.36;121960;1152;22562;-77
2021/04/03 02:56:48;;;;;;;32.18;15.00;;;;;;;5.75;68.23;100165.77;122154;1152;22541;-78
2021/04/03 02:59:33;;;;;;;20.28;14.25;;;;;;;5.77;68.30;100169.08;122160;1152;22740;-78
2021/04/03 03:02:03;;;;;;;24.27;15.77;;;;;;;5.79;68.56;100171.55;122187;1152;22551;-78
2021/04/03 03:04:33;;;;;;;16.00;14.15;;;;;;;5.81;68.26;100172.24;122246;1152;22540;-78
2021/04/03 03:07:01;;;;;;;18.68;15.20;;;;;;;5.80;68.43;100168.80;122130;1152;22539;-76
2021/04/03 03:09:31;;;;;;;20.03;15.43;;;;;;;5.79;68.44;100172.37;122108;1152;22547;-77
2021/04/03 03:12:14;;;;;;;16.90;14.17;;;;;;;5.80;68.45;100171.42;122229;1152;24777;-76
2021/04/03 03:14:49;;;;;;;22.15;15.30;;;;;;;5.79;68.61;100169.75;122505;1152;22552;-77
2021/04/03 03:17:18;;;;;;;21.50;15.43;;;;;;;5.79;68.71;100168.92;122167;1152;23467;-77
2021/04/03 03:19:51;;;;;;;20.73;14.43;;;;;;;5.80;68.83;100175.84;122206;1152;22540;-78
2021/04/03 03:22:21;;;;;;;18.13;12.80;;;;;;;5.82;68.83;100176.51;121987;1155;22562;-78
2021/04/03 03:24:51;;;;;;;19.75;13.50;;;;;;;5.81;68.88;100175.69;121523;1157;22582;-78
2021/04/03 03:27:21;;;;;;;18.00;12.75;;;;;;;5.77;68.48;100184.81;121468;1159;23448;-76
2021/04/03 03:29:51;;;;;;;19.83;12.65;;;;;;;5.78;68.82;100185.63;121507;1157;23057;-76
2021/04/03 03:32:20;;;;;;;20.85;12.55;;;;;;;5.75;69.12;100188.53;121560;1158;25391;-77
2021/04/03 03:35:03;;;;;;;22.10;12.20;;;;;;;5.72;68.54;100189.63;121080;1161;22747;-77
2021/04/03 03:37:35;;;;;;;16.58;10.88;;;;;;;5.72;68.76;100191.43;121197;1158;22596;-77
2021/04/03 03:40:08;;;;;;;19.65;11.18;;;;;;;5.72;68.25;100191.43;120996;1161;22657;-76
2021/04/03 03:42:36;;;;;;;17.63;10.57;;;;;;;5.71;68.49;100192.41;121139;1161;22580;-76
2021/04/03 03:45:11;;;;;;;20.55;11.75;;;;;;;5.70;68.57;100186.34;121201;1161;22596;-75
2021/04/03 03:47:44;;;;;;;20.73;11.75;;;;;;;5.70;68.68;100196.83;121105;1160;22628;-76
2021/04/03 03:50:19;;;;;;;24.70;13.23;;;;;;;5.66;68.56;100193.66;121111;1163;23200;-77
2021/04/03 03:52:49;;;;;;;17.78;11.25;;;;;;;5.64;68.30;100192.96;121119;1161;22664;-76
2021/04/03 03:55:18;;;;;;;16.00;10.05;;;;;;;5.63;68.31;100196.56;120969;1164;22584;-77
2021/04/03 03:57:47;;;;;;;13.18;9.90;;;;;;;5.60;67.92;100198.63;120995;1161;22691;-75
2021/04/03 04:00:19;;;;;;;14.70;10.10;;;;;;;5.58;68.27;100206.62;121174;1157;22557;-75
2021/04/03 04:02:56;;;;;;;15.08;9.50;;;;;;;5.57;68.31;100201.53;121513;1158;24933;-76
2021/04/03 04:05:25;;;;;;;15.95;10.30;;;;;;;5.55;68.27;100204.27;121498;1159;22612;-75
2021/04/03 04:08:01;;;;;;;15.33;8.63;;;;;;;5.54;68.17;100207.05;121246;1158;23135;-75
2021/04/03 04:10:30;;;;;;;17.93;8.98;;;;;;;5.50;68.22;100209.12;121492;1158;24961;-75
2021/04/03 04:13:01;;;;;;;16.35;9.50;;;;;;;5.48;68.14;100207.59;121354;1157;22566;-74
2021/04/03 04:15:33;;;;;;;21.50;10.35;;;;;;;5.46;68.12;100214.75;121700;1155;22574;-75
2021/04/03 04:18:04;;;;;;;13.70;9.10;;;;;;;5.44;68.33;100214.91;121596;1158;25361;-75
2021/04/03 04:20:33;;;;;;;19.70;10.88;;;;;;;5.45;68.52;100221.79;121678;1156;22705;-75
2021/04/03 04:23:05;;;;;;;14.58;9.90;;;;;;;5.42;68.58;100222.06;121745;1155;22672;-76
2021/04/03 04:25:40;;;;;;;15.25;10.23;;;;;;;5.42;68.60;100229.92;121730;1155;22566;-76
2021/04/03 04:28:09;;;;;;;22.60;12.70;;;;;;;5.42;68.48;100225.50;122065;1157;22564;-75
2021/04/03 04:30:38;;;;;;;20.20;10.77;;;;;;;5.40;68.51;100234.48;121230;1159;22561;-75
2021/04/03 04:33:09;;;;;;;21.08;14.28;;;;;;;5.39;68.62;100230.19;121661;1154;22698;-76
2021/04/03 04:35:38;;;;;;;21.60;13.48;;;;;;;5.37;68.84;100232.14;121731;1155;22880;-75
2021/04/03 04:38:11;;;;;;;14.23;11.78;;;;;;;5.33;68.73;100235.97;121499;1158;23446;-76
2021/04/03 04:40:42;;;;;;;15.43;12.38;;;;;;;5.28;68.91;100246.88;121550;1158;24766;-76
2021/04/03 04:43:13;;;;;;;17.00;14.33;;;;;;;5.24;68.67;100239.44;121520;1158;22680;-76
2021/04/03 04:45:43;;;;;;;17.58;14.18;;;;;;;5.22;68.86;100243.97;121133;1160;22594;-76
2021/04/03 04:48:13;;;;;;;18.00;14.10;;;;;;;5.18;68.99;100248.66;120986;1161;23645;-76
2021/04/03 04:50:43;;;;;;;16.45;13.45;;;;;;;5.16;69.00;100246.19;121093;1161;22631;-76
2021/04/03 04:53:13;;;;;;;17.97;15.13;;;;;;;5.13;68.75;100249.06;121097;1160;22632;-77
2021/04/03 04:55:44;;;;;;;18.67;13.37;;;;;;;5.03;68.83;100245.61;121168;1158;22721;-77
2021/04/03 04:58:13;;;;;;;15.47;13.97;;;;;;;4.97;68.88;100261.02;121198;1158;23722;-77
2021/04/03 05:00:41;;;;;;;17.40;14.65;;;;;;;4.91;69.15;100262.38;121224;1158;24557;-76
2021/04/03 05:03:21;;;;;;;13.70;12.35;;;;;;;4.87;69.21;100266.23;121319;1155;22752;-76
2021/04/03 05:05:50;;;;;;;16.23;11.40;;;;;;;4.84;69.31;100267.31;121620;1155;22885;-77
2021/04/03 05:08:18;;;;;;;11.75;10.65;;;;;;;4.81;69.16;100272.81;121474;1158;24773;-77
2021/04/03 05:10:47;;;;;;;11.93;10.65;;;;;;;4.77;69.10;100265.37;121152;1160;22574;-77
2021/04/03 05:13:15;;;;;;;12.75;11.45;;;;;;;4.71;69.20;100274.56;121509;1157;24535;-74
2021/04/03 05:15:43;;;;;;;12.38;11.18;;;;;;;4.65;69.28;100281.14;121586;1156;22599;-74
2021/04/03 05:18:11;;;;;;;17.85;15.95;;;;;;;4.63;69.55;100284.84;121586;1157;23349;-76
2021/04/03 05:20:39;;;;;;;22.25;18.50;;;;;;;4.62;69.72;100283.20;121505;1156;22577;-76
2021/04/03 05:23:08;;;;;;;24.07;18.13;;;;;;;4.66;69.91;100284.58;121214;1158;22564;-75
2021/04/03 05:25:36;;;;;;;17.23;14.08;;;;;;;4.63;69.48;100282.23;121553;1156;22585;-75
2021/04/03 05:28:04;;;;;;;18.28;13.10;;;;;;;4.58;69.57;100287.05;122080;1153;22554;-74
2021/04/03 05:30:32;;;;;;;15.95;13.20;;;;;;;4.55;69.51;100295.97;122065;1155;22545;-76
2021/04/03 05:33:02;;;;;;;18.33;15.38;;;;;;;4.57;69.50;100291.45;122091;1153;22604;-76
2021/04/03 05:35:30;;;;;;;13.98;12.68;;;;;;;4.56;69.71;100289.77;122020;1153;22549;-76
2021/04/03 05:37:59;;;;;;;17.18;13.75;;;;;;;4.54;69.99;100299.55;122022;1152;22557;-75
2021/04/03 05:40:29;;;;;;;18.25;15.38;;;;;;;4.56;69.92;100300.23;122183;1155;22537;-76
2021/04/03 05:43:01;;;;;;;21.33;14.55;;;;;;;4.57;69.92;100298.48;122157;1152;22540;-77
2021/04/03 05:45:31;;;;;;;18.70;14.70;;;;;;;4.58;70.19;100303.56;122169;1152;24416;-76
2021/04/03 05:47:59;;;;;;;17.15;15.35;;;;;;;4.58;70.03;100316.64;122129;1152;22555;-76
2021/04/03 05:50:29;;;;;;;19.38;15.55;;;;;;;4.59;70.28;100309.62;122260;1155;24683;-77
2021/04/03 05:53:00;;;;;;;20.40;16.13;;;;;;;4.62;70.37;100302.33;122303;1152;24679;-82
2021/04/03 05:55:29;;;;;;;22.75;18.75;;;;;;;4.67;70.31;100312.43;122211;1153;25179;-81
2021/04/03 05:57:57;;;;;;;26.33;18.13;;;;;;;4.72;70.48;100305.82;122209;1154;24348;-81
2021/04/03 06:00:25;;;;;;;21.10;17.68;;;;;;;4.78;70.25;100316.73;122198;1152;22605;-81
2021/04/03 06:02:56;;;;;;;20.50;17.73;;;;;;;4.81;70.16;100308.63;122299;1152;24696;-80
2021/04/03 06:05:25;;;;;;;19.78;17.15;;;;;;;4.87;70.30;100314.16;122186;1152;24680;-80
2021/04/03 06:07:53;;;;;;;22.88;17.43;;;;;;;4.95;70.56;100310.88;122284;1152;22594;-82
2021/04/03 06:10:21;;;;;;;25.30;20.15;;;;;;;4.99;70.05;100312.27;122264;1152;24787;-81
2021/04/03 06:12:52;;;;;;;21.83;19.50;;;;;;;5.05;70.00;100305.67;122380;1152;23269;-80
2021/04/03 06:15:32;;;;;;;21.55;18.90;;;;;;;5.13;69.91;100303.20;122536;1152;22665;-79
2021/04/03 06:18:08;;;;;;;24.80;19.30;;;;;;;5.18;69.90;100314.13;122514;1152;22627;-79
2021/04/03 06:20:43;;;;;;;22.43;18.30;;;;;;;5.20;69.55;100312.21;122219;1151;24683;-80
2021/04/03 06:23:12;;;;;;;25.80;18.85;;;;;;;5.23;69.40;100324.19;122277;1152;22535;-80
2021/04/03 06:26:00;;;;;;;20.70;17.45;;;;;;;5.24;68.93;100320.63;122241;1152;22599;-81
2021/04/03 06:28:32;;;;;;;23.15;18.93;;;;;;;5.26;69.47;100327.36;122221;1152;22611;-80
2021/04/03 06:31:18;;;;;;;25.30;18.35;;;;;;;5.35;69.45;100329.19;122563;1152;22544;-81
2021/04/03 06:33:47;;;;;;;21.38;18.20;;;;;;;5.44;69.41;100343.28;121999;1155;22563;-81
2021/04/03 06:36:18;;;;;;;22.43;18.08;;;;;;;5.55;69.36;100345.77;121798;1158;22553;-80
2021/04/03 06:38:59;;;;;;;25.05;18.80;;;;;;;5.66;69.25;100343.05;121473;1158;22615;-80
2021/04/03 06:41:29;;;;;;;22.18;17.30;;;;;;;5.80;69.29;100344.44;121592;1158;22593;-81
2021/04/03 06:44:12;;;;;;;24.20;19.53;;;;;;;6.01;69.70;100346.13;121522;1159;24744;-76
2021/04/03 06:46:48;;;;;;;22.47;18.60;;;;;;;6.60;71.41;100345.91;121447;1158;23585;-75
2021/04/03 06:49:18;;;;;;;22.67;17.97;;;;;;;7.29;71.98;100355.16;121162;1161;22567;-75
2021/04/03 06:51:50;;;;;;;19.97;16.17;;;;;;;7.87;70.08;100359.23;121242;1158;24000;-74
2021/04/03 06:54:19;;;;;;;20.73;15.35;;;;;;;8.17;67.25;100362.47;121593;1155;22626;-75
2021/04/03 06:56:51;;;;;;;20.65;16.33;;;;;;;8.28;65.29;100364.02;121455;1159;22592;-74
2021/04/03 06:59:21;;;;;;;;;;;;;;;8.23;64.28;100369.72;121142;1161;22760;-76
2021/04/03 07:01:54;;;;;;;18.60;13.55;;;;;;;8.08;63.36;100376.52;121415;1158;21441;-74
2021/04/03 07:04:31;;;;;;;17.28;12.33;;;;;;;7.80;62.07;100389.75;121136;1159;22578;-75
2021/04/03 07:06:59;;;;;;;16.03;12.53;;;;;;;7.52;62.15;100392.38;121229;1159;22639;-74
2021/04/03 07:09:27;;;;;;;16.73;13.98;;;;;;;7.40;62.31;100392.75;121121;1158;23358;-75
2021/04/03 07:11:57;;;;;;;16.90;13.97;;;;;;;7.27;62.46;100396.53;121180;1158;24790;-75
2021/04/03 07:14:26;;;;;;;15.95;14.23;;;;;;;7.28;63.06;100394.73;121271;1155;22632;-75
2021/04/03 07:16:55;;;;;;;17.50;15.68;;;;;;;7.36;62.79;100391.37;121577;1156;22586;-79
2021/04/03 07:19:27;;;;;;;19.45;15.40;;;;;;;7.49;63.65;100400.56;121667;1155;22656;-81
2021/04/03 07:21:56;;;;;;;17.78;13.30;;;;;;;7.68;63.09;100399.63;121633;1156;22582;-79
2021/04/03 07:24:25;;;;;;;16.65;13.03;;;;;;;8.01;64.07;100411.31;121546;1155;22612;-81
2021/04/03 07:26:54;;;;;;;15.23;12.75;;;;;;;8.43;63.24;100413.38;121670;1154;22702;-80
2021/04/03 07:29:44;;;;;;;18.68;12.70;;;;;;;8.62;61.94;100416.80;121788;1156;22591;-80
2021/04/03 07:32:38;;;;;;;17.33;13.33;;;;;;;8.92;61.86;100418.16;121808;1156;22669;-79
2021/04/03 07:35:56;;;;;;;16.45;11.50;;;;;;;9.01;59.84;100430.40;121540;1158;22578;-79
2021/04/03 07:38:45;;;;;;;17.43;12.53;;;;;;;9.00;59.47;100431.39;121110;1162;25172;-79
2021/04/03 07:41:13;;;;;;;21.27;12.83;;;;;;;9.06;59.00;100441.28;120992;1161;22571;-78
2021/04/03 07:43:47;;;;;;;15.85;11.10;;;;;;;9.08;58.70;100439.33;120952;1164;22584;-77
2021/04/03 07:46:38;;;;;;;14.37;11.57;;;;;;;8.95;57.56;100447.64;120949;1161;22582;-76
2021/04/03 07:49:07;;;;;;;22.75;12.70;;;;;;;8.80;57.81;100443.94;121252;1161;22931;-77
2021/04/03 07:51:35;;;;;;;19.07;13.83;;;;;;;8.76;57.92;100450.47;120921;1164;22624;-76
2021/04/03 07:54:12;;;;;;;18.40;13.40;;;;;;;9.01;58.43;100454.11;121089;1161;23480;-76
2021/04/03 07:56:50;;;;;;;16.80;11.48;;;;;;;9.29;58.40;100456.57;120999;1161;23505;-76
2021/04/03 07:59:44;;;;;;;13.40;11.08;;;;;;;9.66;57.57;100458.88;120945;1164;22598;-76
2021/04/03 08:02:20;;;;;;;17.10;11.55;;;;;;;9.70;55.78;100464.69;121093;1161;22593;-76
2021/04/03 08:04:50;;;;;;;13.03;10.95;;;;;;;9.95;56.28;100465.58;121233;1161;22626;-76
2021/04/03 08:07:20;;;;;;;13.93;10.65;;;;;;;10.27;55.65;100483.34;121306;1161;22578;-75
2021/04/03 08:09:50;;;;;;;19.38;11.85;;;;;;;10.48;54.27;100477.59;121370;1158;22581;-78
2021/04/03 08:12:24;;;;;;;15.80;12.20;;;;;;;10.72;53.81;100482.88;121295;1158;22656;-78
2021/04/03 08:14:56;;;;;;;16.05;10.58;;;;;;;10.95;53.13;100482.20;121795;1155;22557;-76
2021/04/03 08:17:31;;;;;;;13.63;10.00;;;;;;;11.37;53.17;100478.50;121903;1152;23467;-77
2021/04/03 08:20:06;;;;;;;14.73;10.75;;;;;;;11.85;52.32;100487.27;122409;1154;22535;-76
2021/04/03 08:22:34;;;;;;;16.65;10.83;;;;;;;12.23;50.84;100488.24;122239;1152;22581;-76
2021/04/03 08:25:06;;;;;;;12.63;10.13;;;;;;;12.43;50.20;100493.91;122221;1152;22531;-77
2021/04/03 08:27:37;;;;;;;12.95;10.50;;;;;;;12.55;49.39;100492.47;122242;1154;23471;-76
2021/04/03 08:30:22;;;;;;;13.98;11.40;;;;;;;12.73;49.11;100492.19;122224;1152;22533;-77
2021/04/03 08:33:23;;;;;;;14.13;10.73;;;;;;;13.07;49.08;100490.89;122311;1152;24931;-76
2021/04/03 08:35:55;;;;;;;11.45;8.33;;;;;;;13.42;48.27;100489.38;121754;1158;22645;-77
2021/04/03 08:38:36;;;;;;;;;;;;;;;13.57;46.71;100494.70;121290;1162;22577;-77
2021/04/03 08:41:04;;;;;;;14.63;9.78;;;;;;;13.65;46.85;100495.41;121502;1158;21346;-77
2021/04/03 08:43:37;;;;;;;15.85;9.38;;;;;;;13.53;45.53;100502.21;121542;1158;22721;-77
2021/04/03 08:46:17;;;;;;;12.10;8.03;;;;;;;13.45;45.83;100502.28;121151;1160;22801;-76
2021/04/03 08:48:49;;;;;;;10.48;7.05;;;;;;;13.43;45.68;100509.63;121196;1161;22810;-76
2021/04/03 08:51:22;;;;;;;11.05;7.15;;;;;;;13.54;45.15;100506.50;121061;1161;24703;-76
2021/04/03 08:53:59;;;;;;;9.40;6.85;;;;;;;13.57;45.02;100511.45;120976;1161;22598;-76
2021/04/03 08:56:37;;;;;;;9.47;6.63;;;;;;;13.58;44.42;100510.44;120862;1164;22611;-78
2021/04/03 08:59:14;;;;;;;9.40;5.70;;;;;;;13.46;43.85;100516.38;120827;1164;22788;-76
2021/04/03 09:01:50;;;;;;;9.90;6.80;;;;;;;13.40;43.95;100521.42;120706;1168;24637;-77
2021/04/03 09:04:21;;;;;;;11.43;7.17;;;;;;;13.31;43.13;100519.03;120622;1164;22743;-77
2021/04/03 09:06:53;;;;;;;11.27;8.03;;;;;;;13.09;43.56;100510.91;120827;1164;22598;-76
2021/04/03 09:09:29;;;;;;;9.50;6.80;;;;;;;12.98;43.95;100514.00;120693;1167;22690;-76
2021/04/03 09:12:04;;;;;;;11.20;6.70;;;;;;;13.12;44.13;100520.33;120837;1164;22594;-76
2021/04/03 09:14:39;;;;;;;12.00;6.40;;;;;;;13.29;43.79;100521.03;121007;1161;24744;-76
2021/04/03 09:17:23;;;;;;;11.90;5.90;;;;;;;13.19;42.50;100522.11;120899;1164;22595;-77
2021/04/03 09:20:13;;;;;;;10.23;5.03;;;;;;;13.22;42.62;100528.03;121116;1160;24786;-76
2021/04/03 09:22:44;;;;;;;8.20;4.43;;;;;;;13.33;41.94;100531.12;120892;1161;23597;-76
2021/04/03 09:25:22;;;;;;;7.57;4.57;;;;;;;13.39;40.74;100530.40;120983;1161;22603;-76
2021/04/03 09:28:17;;;;;;;7.17;4.47;;;;;;;13.39;40.37;100527.75;120820;1164;24783;-77
2021/04/03 09:30:46;;;;;;;7.95;4.40;;;;;;;13.54;39.92;100529.58;120941;1164;23397;-77
2021/04/03 09:33:26;;;;;;;9.27;3.87;;;;;;;13.51;39.35;100524.63;120872;1164;24776;-78
2021/04/03 09:36:12;;;;;;;7.60;4.03;;;;;;;13.51;39.36;100528.09;120949;1163;24757;-76
2021/04/03 09:38:41;;;;;;;6.23;3.43;;;;;;;13.53;38.69;100530.56;120974;1161;22631;-75
2021/04/03 09:41:32;;;;;;;8.40;5.05;;;;;;;13.37;38.44;100537.70;120985;1159;22610;-75
2021/04/03 09:44:00;;;;;;;8.18;3.95;;;;;;;13.12;38.24;100531.77;121141;1158;22596;-75
2021/04/03 09:46:29;;;;;;;7.35;5.20;;;;;;;12.93;38.62;100532.29;121382;1158;22593;-76
2021/04/03 09:48:57;;;;;;;7.90;5.33;;;;;;;13.22;39.56;100530.69;121155;1159;22576;-77
2021/04/03 09:51:25;;;;;;;7.15;4.53;;;;;;;13.58;38.26;100534.32;121105;1163;22584;-76
2021/04/03 09:53:54;;;;;;;8.48;3.90;;;;;;;13.50;37.31;100523.81;121001;1158;24425;-76
2021/04/03 09:56:22;;;;;;;5.58;3.80;;;;;;;13.28;36.93;100525.52;121407;1158;22602;-77
2021/04/03 09:58:54;;;;;;;7.75;3.95;;;;;;;13.00;36.84;100537.70;121146;1161;25554;-76
2021/04/03 10:01:22;;;;;;;7.57;4.27;;;;;;;12.64;36.42;100539.13;120796;1164;22788;-74
2021/04/03 10:03:53;;;;;;;6.65;4.25;;;;;;;12.30;37.12;100541.34;120944;1161;24821;-76
2021/04/03 10:06:22;;;;;;;7.10;4.20;;;;;;;12.40;37.62;100537.47;120917;1161;24757;-76
2021/04/03 10:08:50;;;;;;;8.60;4.43;;;;;;;12.79;37.70;100541.81;121067;1159;24747;-76
2021/04/03 10:11:19;;;;;;;5.88;4.18;;;;;;;13.10;36.74;100533.79;121238;1158;22593;-77
2021/04/03 10:13:47;;;;;;;6.80;3.60;;;;;;;13.38;36.70;100534.03;121496;1158;24735;-77
2021/04/03 10:16:15;;;;;;;3.15;2.25;;;;;;;13.44;35.20;100540.45;121545;1155;22600;-78
2021/04/03 10:18:43;;;;;;;6.63;3.30;;;;;;;13.55;35.54;100536.52;121722;1152;22807;-76
2021/04/03 10:21:15;;;;;;;4.05;2.65;;;;;;;13.89;35.41;100535.95;122179;1152;22535;-77
2021/04/03 10:23:43;;;;;;;6.65;3.13;;;;;;;14.18;35.11;100531.61;122129;1152;22544;-76
2021/04/03 10:26:11;;;;;;;4.90;2.90;;;;;;;14.51;35.10;100532.00;121692;1155;22617;-76
2021/04/03 10:28:39;;;;;;;4.50;2.98;;;;;;;14.49;33.45;100542.78;121957;1155;22578;-76
2021/04/03 10:31:08;;;;;;;7.90;3.10;;;;;;;14.18;33.41;100536.92;122017;1155;22555;-77
2021/04/03 10:33:36;;;;;;;6.05;4.05;;;;;;;13.82;33.30;100543.02;121739;1155;24709;-77
2021/04/03 10:36:06;;;;;;;7.33;3.98;;;;;;;13.48;33.97;100540.91;121611;1155;22555;-77
2021/04/03 10:38:35;;;;;;;6.50;4.58;;;;;;;13.15;33.97;100534.06;121690;1157;22559;-76
2021/04/03 10:41:05;;;;;;;6.90;3.95;;;;;;;12.77;34.56;100540.37;122036;1157;22563;-77
2021/04/03 10:43:33;;;;;;;8.13;4.18;;;;;;;12.47;34.98;100537.59;121790;1152;25974;-76
2021/04/03 10:46:03;;;;;;;6.03;3.75;;;;;;;12.21;35.45;100541.38;122213;1152;22557;-77
2021/04/03 10:48:32;;;;;;;6.63;4.45;;;;;;;12.00;35.52;100539.33;122144;1152;22544;-77
2021/04/03 10:51:04;;;;;;;7.03;5.13;;;;;;;11.85;36.04;100537.56;122191;1152;22544;-76
2021/04/03 10:53:33;;;;;;;9.75;3.75;;;;;;;11.73;36.17;100540.56;121741;1157;22553;-77
2021/04/03 10:56:02;;;;;;;7.48;4.18;;;;;;;11.55;35.43;100540.77;121723;1154;22589;-77
2021/04/03 10:58:31;;;;;;;6.38;4.45;;;;;;;11.47;36.27;100542.63;121694;1157;22588;-79
2021/04/03 11:00:59;;;;;;;5.90;4.40;;;;;;;11.48;36.72;100531.03;121667;1155;22616;-77
2021/04/03 11:03:28;;;;;;;6.68;4.23;;;;;;;11.46;36.49;100538.30;121719;1155;22598;-76
2021/04/03 11:05:56;;;;;;;7.15;4.20;;;;;;;11.35;36.32;100531.55;122119;1155;22551;-76
2021/04/03 11:08:25;;;;;;;10.90;4.25;;;;;;;11.24;36.36;100535.38;121616;1155;22548;-76
2021/04/03 11:10:53;;;;;;;6.35;3.48;;;;;;;11.12;36.38;100528.77;122108;1152;22590;-77
2021/04/03 11:13:21;;;;;;;8.73;4.13;;;;;;;11.00;36.54;100530.13;122196;1155;22936;-77
2021/04/03 11:15:49;;;;;;;7.15;3.48;;;;;;;10.97;36.91;100530.45;122473;1152;22766;-82
2021/04/03 11:18:17;;;;;;;5.60;3.77;;;;;;;10.92;36.98;100524.83;122666;1152;22726;-82
2021/04/03 11:20:46;;;;;;;5.93;3.50;;;;;;;10.89;37.09;100533.91;122677;1151;22536;-84
2021/04/03 11:23:14;;;;;;;6.38;3.40;;;;;;;10.91;37.20;100520.54;122186;1155;22713;-84
2021/04/03 11:25:49;;;;;;;7.40;4.15;;;;;;;10.92;37.32;100522.19;121966;1155;24939;-83
2021/04/03 11:28:29;;;;;;;7.03;4.28;;;;;;;10.96;37.37;100531.42;121632;1158;22621;-83
2021/04/03 11:30:59;;;;;;;5.25;3.58;;;;;;;11.01;37.43;100527.30;121515;1159;22571;-83
2021/04/03 11:33:27;;;;;;;8.60;3.80;;;;;;;10.87;37.05;100529.80;121586;1158;22566;-85
2021/04/03 11:35:55;;;;;;;8.18;5.90;;;;;;;10.77;37.00;100529.95;121839;1158;22663;-85
2021/04/03 11:38:24;;;;;;;7.55;5.08;;;;;;;10.66;37.16;100536.37;122019;1158;22712;-85